sensor_id;sensor_type;location;lat;lon;timestamp;pressure;altitude;pressure_sealevel;temperature;humidity
31483;BME280;18103;52.246;8.052;2023-02-14T00:02:17;102395.31;;;4.06;84.15
31483;BME280;18103;52.246;8.052;2023-02-14T00:04:42;102402.97;;;4.15;84.31
31483;BME280;18103;52.246;8.052;2023-02-14T00:07:09;102395.34;;;4.04;84.20
31483;BME280;18103;52.246;8.052;2023-02-14T00:09:34;102391.88;;;4.02;84.31
31483;BME280;18103;52.246;8.052;2023-02-14T00:12:00;102401.38;;;4.06;84.01
31483;BME280;18103;52.246;8.052;2023-02-14T00:14:25;102393.78;;;3.92;84.01
31483;BME280;18103;52.246;8.052;2023-02-14T00:17:09;102387.63;;;3.97;84.50
31483;BME280;18103;52.246;8.052;2023-02-14T00:19:35;102387.56;;;4.00;84.26
31483;BME280;18103;52.246;8.052;2023-02-14T00:22:01;102392.72;;;4.04;84.33
31483;BME280;18103;52.246;8.052;2023-02-14T00:24:27;102393.72;;;3.96;84.70
31483;BME280;18103;52.246;8.052;2023-02-14T00:26:53;102395.56;;;3.90;84.49
31483;BME280;18103;52.246;8.052;2023-02-14T00:29:21;102399.06;;;3.89;84.59
31483;BME280;18103;52.246;8.052;2023-02-14T00:31:47;102384.31;;;3.87;85.07
31483;BME280;18103;52.246;8.052;2023-02-14T00:34:14;102386.00;;;3.89;84.75
31483;BME280;18103;52.246;8.052;2023-02-14T00:36:40;102389.66;;;3.81;84.73
31483;BME280;18103;52.246;8.052;2023-02-14T00:39:07;102384.41;;;3.79;85.12
31483;BME280;18103;52.246;8.052;2023-02-14T00:41:33;102383.47;;;3.86;84.79
31483;BME280;18103;52.246;8.052;2023-02-14T00:43:59;102379.84;;;3.93;84.57
31483;BME280;18103;52.246;8.052;2023-02-14T00:46:25;102382.50;;;3.90;84.47
31483;BME280;18103;52.246;8.052;2023-02-14T00:48:51;102393.13;;;3.81;84.68
31483;BME280;18103;52.246;8.052;2023-02-14T00:51:17;102387.88;;;3.81;84.84
31483;BME280;18103;52.246;8.052;2023-02-14T00:53:44;102403.41;;;3.90;83.95
31483;BME280;18103;52.246;8.052;2023-02-14T00:56:09;102398.38;;;3.80;84.63
31483;BME280;18103;52.246;8.052;2023-02-14T00:58:35;102395.03;;;3.71;85.53
31483;BME280;18103;52.246;8.052;2023-02-14T01:01:00;102395.25;;;3.56;85.46
31483;BME280;18103;52.246;8.052;2023-02-14T01:03:25;102403.09;;;3.56;85.64
31483;BME280;18103;52.246;8.052;2023-02-14T01:05:51;102396.78;;;3.69;85.38
31483;BME280;18103;52.246;8.052;2023-02-14T01:08:18;102407.19;;;3.72;84.88
31483;BME280;18103;52.246;8.052;2023-02-14T01:10:43;102403.78;;;3.67;84.72
31483;BME280;18103;52.246;8.052;2023-02-14T01:13:09;102403.75;;;3.69;84.61
31483;BME280;18103;52.246;8.052;2023-02-14T01:15:40;102397.03;;;3.54;85.84
31483;BME280;18103;52.246;8.052;2023-02-14T01:18:05;102404.09;;;3.49;85.84
31483;BME280;18103;52.246;8.052;2023-02-14T01:20:31;102402.13;;;3.62;85.72
31483;BME280;18103;52.246;8.052;2023-02-14T01:22:56;102400.44;;;3.59;85.14
31483;BME280;18103;52.246;8.052;2023-02-14T01:25:22;102393.53;;;3.55;85.36
31483;BME280;18103;52.246;8.052;2023-02-14T01:27:47;102394.34;;;3.60;85.08
31483;BME280;18103;52.246;8.052;2023-02-14T01:30:13;102398.72;;;3.56;85.43
31483;BME280;18103;52.246;8.052;2023-02-14T01:32:39;102404.03;;;3.52;85.41
31483;BME280;18103;52.246;8.052;2023-02-14T01:35:04;102403.09;;;3.56;85.67
31483;BME280;18103;52.246;8.052;2023-02-14T01:37:30;102403.22;;;3.47;85.45
31483;BME280;18103;52.246;8.052;2023-02-14T01:39:55;102405.88;;;3.45;85.66
31483;BME280;18103;52.246;8.052;2023-02-14T01:42:21;102403.31;;;3.42;85.72
31483;BME280;18103;52.246;8.052;2023-02-14T01:47:12;102407.56;;;3.48;85.66
31483;BME280;18103;52.246;8.052;2023-02-14T01:49:42;102397.28;;;3.37;85.39
31483;BME280;18103;52.246;8.052;2023-02-14T01:52:17;102397.28;;;3.37;85.79
31483;BME280;18103;52.246;8.052;2023-02-14T01:54:51;102392.19;;;3.29;86.19
31483;BME280;18103;52.246;8.052;2023-02-14T01:57:20;102387.69;;;3.39;85.87
31483;BME280;18103;52.246;8.052;2023-02-14T01:59:56;102393.94;;;3.29;86.07
31483;BME280;18103;52.246;8.052;2023-02-14T02:02:42;102396.50;;;3.32;85.92
31483;BME280;18103;52.246;8.052;2023-02-14T02:05:08;102388.56;;;3.38;85.06
31483;BME280;18103;52.246;8.052;2023-02-14T02:07:35;102392.88;;;3.42;84.60
31483;BME280;18103;52.246;8.052;2023-02-14T02:10:03;102387.94;;;3.23;85.28
31483;BME280;18103;52.246;8.052;2023-02-14T02:12:32;102384.34;;;3.31;85.07
31483;BME280;18103;52.246;8.052;2023-02-14T02:15:00;102393.88;;;3.33;85.13
31483;BME280;18103;52.246;8.052;2023-02-14T02:17:42;102380.91;;;3.27;84.92
31483;BME280;18103;52.246;8.052;2023-02-14T02:42:32;102366.34;;;3.12;86.77
31483;BME280;18103;52.246;8.052;2023-02-14T02:45:23;102367.31;;;3.06;86.75
31483;BME280;18103;52.246;8.052;2023-02-14T02:48:05;102361.84;;;3.20;86.38
31483;BME280;18103;52.246;8.052;2023-02-14T02:50:46;102352.38;;;3.16;86.40
31483;BME280;18103;52.246;8.052;2023-02-14T02:53:46;102350.69;;;3.12;87.07
31483;BME280;18103;52.246;8.052;2023-02-14T02:56:18;102355.03;;;3.12;87.38
31483;BME280;18103;52.246;8.052;2023-02-14T02:59:14;102359.31;;;3.16;87.09
31483;BME280;18103;52.246;8.052;2023-02-14T03:02:04;102349.81;;;3.12;86.81
31483;BME280;18103;52.246;8.052;2023-02-14T03:04:31;102349.00;;;3.10;86.86
31483;BME280;18103;52.246;8.052;2023-02-14T03:07:16;102350.69;;;3.12;87.42
31483;BME280;18103;52.246;8.052;2023-02-14T03:17:30;102337.75;;;3.04;87.01
31483;BME280;18103;52.246;8.052;2023-02-14T03:22:52;102340.41;;;3.01;87.42
31483;BME280;18103;52.246;8.052;2023-02-14T03:28:14;102340.38;;;3.03;87.62
31483;BME280;18103;52.246;8.052;2023-02-14T03:33:54;102329.19;;;2.95;86.80
31483;BME280;18103;52.246;8.052;2023-02-14T03:36:26;102321.50;;;2.85;86.99
31483;BME280;18103;52.246;8.052;2023-02-14T03:38:59;102323.88;;;3.02;86.08
31483;BME280;18103;52.246;8.052;2023-02-14T03:41:30;102318.00;;;2.86;86.65
31483;BME280;18103;52.246;8.052;2023-02-14T03:44:02;102313.66;;;2.85;86.79
31483;BME280;18103;52.246;8.052;2023-02-14T03:46:35;102317.09;;;2.90;86.54
31483;BME280;18103;52.246;8.052;2023-02-14T03:49:07;102320.63;;;2.86;87.22
31483;BME280;18103;52.246;8.052;2023-02-14T03:51:35;102316.31;;;2.84;86.96
31483;BME280;18103;52.246;8.052;2023-02-14T03:54:03;102317.16;;;2.86;86.54
31483;BME280;18103;52.246;8.052;2023-02-14T03:56:32;102310.19;;;2.86;86.79
31483;BME280;18103;52.246;8.052;2023-02-14T03:59:05;102309.47;;;2.77;87.40
31483;BME280;18103;52.246;8.052;2023-02-14T04:01:35;102307.72;;;2.79;87.03
31483;BME280;18103;52.246;8.052;2023-02-14T04:04:05;102314.63;;;2.81;86.81
31483;BME280;18103;52.246;8.052;2023-02-14T04:06:31;102308.56;;;2.79;86.76
31483;BME280;18103;52.246;8.052;2023-02-14T04:08:57;102303.34;;;2.79;86.65
31483;BME280;18103;52.246;8.052;2023-02-14T04:11:22;102303.38;;;2.76;86.65
31483;BME280;18103;52.246;8.052;2023-02-14T04:13:47;102301.59;;;2.78;85.93
31483;BME280;18103;52.246;8.052;2023-02-14T04:16:13;102305.88;;;2.84;85.79
31483;BME280;18103;52.246;8.052;2023-02-14T04:18:38;102294.50;;;2.89;85.50
31483;BME280;18103;52.246;8.052;2023-02-14T04:21:22;102302.59;;;2.71;86.20
31483;BME280;18103;52.246;8.052;2023-02-14T04:23:47;102305.22;;;2.69;86.35
31483;BME280;18103;52.246;8.052;2023-02-14T04:26:12;102304.41;;;2.64;86.34
31483;BME280;18103;52.246;8.052;2023-02-14T04:28:38;102297.38;;;2.71;85.83
31483;BME280;18103;52.246;8.052;2023-02-14T04:31:04;102307.91;;;2.63;85.79
31483;BME280;18103;52.246;8.052;2023-02-14T04:33:31;102299.31;;;2.56;85.68
31483;BME280;18103;52.246;8.052;2023-02-14T04:35:57;102299.31;;;2.56;85.59
31483;BME280;18103;52.246;8.052;2023-02-14T04:38:22;102302.84;;;2.52;85.40
31483;BME280;18103;52.246;8.052;2023-02-14T04:40:49;102301.09;;;2.51;85.26
31483;BME280;18103;52.246;8.052;2023-02-14T04:43:14;102304.72;;;2.41;85.24
31483;BME280;18103;52.246;8.052;2023-02-14T04:45:40;102308.19;;;2.42;84.88
31483;BME280;18103;52.246;8.052;2023-02-14T04:48:05;102303.09;;;2.32;85.09
31483;BME280;18103;52.246;8.052;2023-02-14T04:50:31;102304.78;;;2.38;84.73
31483;BME280;18103;52.246;8.052;2023-02-14T04:52:56;102301.31;;;2.36;84.01
31483;BME280;18103;52.246;8.052;2023-02-14T04:55:22;102298.75;;;2.33;83.83
31483;BME280;18103;52.246;8.052;2023-02-14T04:57:47;102291.81;;;2.32;83.88
31483;BME280;18103;52.246;8.052;2023-02-14T05:00:13;102302.25;;;2.29;83.80
31483;BME280;18103;52.246;8.052;2023-02-14T05:02:38;102290.13;;;2.26;83.96
31483;BME280;18103;52.246;8.052;2023-02-14T05:05:04;102291.97;;;2.18;83.77
31483;BME280;18103;52.246;8.052;2023-02-14T05:07:30;102293.63;;;2.23;83.62
31483;BME280;18103;52.246;8.052;2023-02-14T05:09:55;102290.25;;;2.15;84.29
31483;BME280;18103;52.246;8.052;2023-02-14T05:12:20;102289.41;;;2.15;84.22
31483;BME280;18103;52.246;8.052;2023-02-14T05:14:46;102279.13;;;2.02;84.57
31483;BME280;18103;52.246;8.052;2023-02-14T05:17:11;102283.38;;;2.13;84.33
31483;BME280;18103;52.246;8.052;2023-02-14T05:19:37;102282.53;;;2.09;84.40
31483;BME280;18103;52.246;8.052;2023-02-14T05:22:02;102280.78;;;2.08;84.57
31483;BME280;18103;52.246;8.052;2023-02-14T05:24:27;102277.19;;;2.20;84.28
31483;BME280;18103;52.246;8.052;2023-02-14T05:26:53;102280.00;;;2.03;84.99
31483;BME280;18103;52.246;8.052;2023-02-14T05:29:18;102294.75;;;2.01;85.68
31483;BME280;18103;52.246;8.052;2023-02-14T05:31:44;102299.94;;;2.04;85.88
31483;BME280;18103;52.246;8.052;2023-02-14T05:34:10;102291.28;;;2.02;85.91
31483;BME280;18103;52.246;8.052;2023-02-14T05:36:35;102292.16;;;2.01;86.11
31483;BME280;18103;52.246;8.052;2023-02-14T05:39:00;102296.59;;;1.93;86.79
31483;BME280;18103;52.246;8.052;2023-02-14T05:41:26;102298.28;;;1.97;86.21
31483;BME280;18103;52.246;8.052;2023-02-14T05:43:51;102295.59;;;2.04;85.80
31483;BME280;18103;52.246;8.052;2023-02-14T05:46:16;102296.50;;;2.02;86.12
31483;BME280;18103;52.246;8.052;2023-02-14T05:48:42;102297.34;;;2.04;86.00
31483;BME280;18103;52.246;8.052;2023-02-14T05:51:09;102299.22;;;1.90;86.76
31483;BME280;18103;52.246;8.052;2023-02-14T05:53:34;102303.47;;;1.98;86.24
31483;BME280;18103;52.246;8.052;2023-02-14T05:56:00;102300.78;;;2.06;86.07
31483;BME280;18103;52.246;8.052;2023-02-14T05:58:25;102301.75;;;1.99;86.26
31483;BME280;18103;52.246;8.052;2023-02-14T06:00:51;102298.31;;;1.94;86.09
31483;BME280;18103;52.246;8.052;2023-02-14T06:03:16;102299.19;;;1.93;85.53
31483;BME280;18103;52.246;8.052;2023-02-14T06:05:42;102307.09;;;1.86;86.27
31483;BME280;18103;52.246;8.052;2023-02-14T06:08:07;102304.53;;;1.80;86.67
31483;BME280;18103;52.246;8.052;2023-02-14T06:10:33;102310.63;;;1.81;85.92
31483;BME280;18103;52.246;8.052;2023-02-14T06:12:59;102319.22;;;1.87;86.35
31483;BME280;18103;52.246;8.052;2023-02-14T06:15:24;102316.63;;;1.86;86.58
31483;BME280;18103;52.246;8.052;2023-02-14T06:17:52;102318.47;;;1.75;86.92
31483;BME280;18103;52.246;8.052;2023-02-14T06:20:17;102313.25;;;1.75;86.88
31483;BME280;18103;52.246;8.052;2023-02-14T06:22:43;102318.44;;;1.76;86.72
31483;BME280;18103;52.246;8.052;2023-02-14T06:25:08;102315.91;;;1.70;86.56
31483;BME280;18103;52.246;8.052;2023-02-14T06:27:34;102318.47;;;1.73;86.12
31483;BME280;18103;52.246;8.052;2023-02-14T06:29:59;102309.81;;;1.74;86.18
31483;BME280;18103;52.246;8.052;2023-02-14T06:32:25;102306.38;;;1.69;86.33
31483;BME280;18103;52.246;8.052;2023-02-14T06:34:50;102314.97;;;1.77;86.28
31483;BME280;18103;52.246;8.052;2023-02-14T06:37:16;102313.28;;;1.71;86.29
31483;BME280;18103;52.246;8.052;2023-02-14T06:39:41;102312.44;;;1.71;86.11
31483;BME280;18103;52.246;8.052;2023-02-14T06:42:06;102318.59;;;1.64;86.30
31483;BME280;18103;52.246;8.052;2023-02-14T06:44:32;102322.88;;;1.68;86.42
31483;BME280;18103;52.246;8.052;2023-02-14T06:46:57;102315.91;;;1.70;86.21
31483;BME280;18103;52.246;8.052;2023-02-14T06:49:23;102315.97;;;1.62;86.62
31483;BME280;18103;52.246;8.052;2023-02-14T06:51:48;102325.50;;;1.63;86.81
31483;BME280;18103;52.246;8.052;2023-02-14T06:54:14;102320.34;;;1.60;86.70
31483;BME280;18103;52.246;8.052;2023-02-14T06:56:39;102324.69;;;1.60;86.88
31483;BME280;18103;52.246;8.052;2023-02-14T06:59:05;102319.44;;;1.64;86.93
31483;BME280;18103;52.246;8.052;2023-02-14T07:01:30;102319.50;;;1.57;87.20
31483;BME280;18103;52.246;8.052;2023-02-14T07:03:56;102320.28;;;1.66;86.93
31483;BME280;18103;52.246;8.052;2023-02-14T07:06:21;102321.97;;;1.74;86.03
31483;BME280;18103;52.246;8.052;2023-02-14T07:08:46;102322.00;;;1.69;86.22
31483;BME280;18103;52.246;8.052;2023-02-14T07:11:12;102314.25;;;1.63;86.57
31483;BME280;18103;52.246;8.052;2023-02-14T07:13:37;102316.84;;;1.63;86.73
31483;BME280;18103;52.246;8.052;2023-02-14T07:16:03;102321.16;;;1.65;87.15
31483;BME280;18103;52.246;8.052;2023-02-14T07:18:28;102315.91;;;1.70;87.30
31483;BME280;18103;52.246;8.052;2023-02-14T07:20:53;102322.66;;;1.90;86.76
31483;BME280;18103;52.246;8.052;2023-02-14T07:23:19;102320.63;;;2.18;86.02
31483;BME280;18103;52.246;8.052;2023-02-14T07:25:44;102324.69;;;2.42;85.68
31483;BME280;18103;52.246;8.052;2023-02-14T07:28:09;102333.19;;;2.58;85.46
31483;BME280;18103;52.246;8.052;2023-02-14T07:30:35;102326.06;;;2.69;85.24
31483;BME280;18103;52.246;8.052;2023-02-14T07:33:00;102321.44;;;2.90;85.07
31483;BME280;18103;52.246;8.052;2023-02-14T07:35:26;102318.69;;;3.01;85.71
31483;BME280;18103;52.246;8.052;2023-02-14T07:37:51;102319.44;;;3.07;85.58
31483;BME280;18103;52.246;8.052;2023-02-14T07:40:17;102316.56;;;3.26;84.78
31483;BME280;18103;52.246;8.052;2023-02-14T07:42:47;102322.50;;;3.36;84.75
31483;BME280;18103;52.246;8.052;2023-02-14T07:45:16;102317.81;;;3.55;83.70
31483;BME280;18103;52.246;8.052;2023-02-14T07:47:41;102313.22;;;3.68;84.22
31483;BME280;18103;52.246;8.052;2023-02-14T07:50:06;102315.53;;;3.86;83.38
31483;BME280;18103;52.246;8.052;2023-02-14T07:52:32;102315.94;;;4.11;83.14
31483;BME280;18103;52.246;8.052;2023-02-14T07:54:57;102318.28;;;4.24;82.61
31483;BME280;18103;52.246;8.052;2023-02-14T07:57:23;102317.19;;;4.36;82.35
31483;BME280;18103;52.246;8.052;2023-02-14T07:59:48;102319.38;;;4.56;81.95
31483;BME280;18103;52.246;8.052;2023-02-14T08:02:13;102316.38;;;4.74;81.16
31483;BME280;18103;52.246;8.052;2023-02-14T08:04:39;102315.34;;;4.82;81.07
31483;BME280;18103;52.246;8.052;2023-02-14T08:07:04;102315.88;;;4.96;80.78
31483;BME280;18103;52.246;8.052;2023-02-14T08:09:29;102318.22;;;5.08;80.48
31483;BME280;18103;52.246;8.052;2023-02-14T08:11:57;102311.47;;;5.34;80.03
31483;BME280;18103;52.246;8.052;2023-02-14T08:14:42;102316.69;;;5.36;80.21
31483;BME280;18103;52.246;8.052;2023-02-14T08:17:08;102307.81;;;5.41;79.65
31483;BME280;18103;52.246;8.052;2023-02-14T08:19:35;102307.41;;;5.58;79.22
31483;BME280;18103;52.246;8.052;2023-02-14T08:22:01;102306.13;;;5.73;78.92
31483;BME280;18103;52.246;8.052;2023-02-14T08:24:26;102298.91;;;5.81;78.35
31483;BME280;18103;52.246;8.052;2023-02-14T08:26:52;102307.25;;;5.96;77.80
31483;BME280;18103;52.246;8.052;2023-02-14T08:29:17;102311.31;;;6.09;77.64
31483;BME280;18103;52.246;8.052;2023-02-14T08:31:43;102306.56;;;6.22;77.32
31483;BME280;18103;52.246;8.052;2023-02-14T08:34:09;102306.97;;;6.40;76.59
31483;BME280;18103;52.246;8.052;2023-02-14T08:36:35;102311.47;;;6.34;76.96
31483;BME280;18103;52.246;8.052;2023-02-14T08:39:02;102314.53;;;6.49;77.04
31483;BME280;18103;52.246;8.052;2023-02-14T08:41:28;102304.31;;;6.70;75.95
31483;BME280;18103;52.246;8.052;2023-02-14T08:43:53;102309.97;;;6.85;75.69
31483;BME280;18103;52.246;8.052;2023-02-14T08:46:19;102309.00;;;6.88;78.54
31483;BME280;18103;52.246;8.052;2023-02-14T08:48:45;102305.19;;;6.98;76.49
31483;BME280;18103;52.246;8.052;2023-02-14T08:51:13;102297.72;;;7.13;75.74
31483;BME280;18103;52.246;8.052;2023-02-14T08:53:39;102300.97;;;7.21;75.68
31483;BME280;18103;52.246;8.052;2023-02-14T08:56:07;102296.31;;;7.29;75.71
31483;BME280;18103;52.246;8.052;2023-02-14T08:58:34;102303.25;;;7.32;75.63
31483;BME280;18103;52.246;8.052;2023-02-14T09:01:09;102296.41;;;7.53;74.78
31483;BME280;18103;52.246;8.052;2023-02-14T09:03:35;102307.78;;;7.79;74.56
31483;BME280;18103;52.246;8.052;2023-02-14T09:06:08;102306.09;;;7.76;74.46
31483;BME280;18103;52.246;8.052;2023-02-14T09:08:38;102308.66;;;7.78;74.59
31483;BME280;18103;52.246;8.052;2023-02-14T09:11:18;102307.28;;;7.93;74.44
31483;BME280;18103;52.246;8.052;2023-02-14T09:13:45;102307.88;;;8.01;73.83
31483;BME280;18103;52.246;8.052;2023-02-14T09:16:12;102302.00;;;8.18;75.04
31483;BME280;18103;52.246;8.052;2023-02-14T09:18:38;102303.72;;;8.19;73.57
31483;BME280;18103;52.246;8.052;2023-02-14T09:21:09;102304.44;;;8.22;73.49
31483;BME280;18103;52.246;8.052;2023-02-14T09:23:35;102303.84;;;8.16;73.96
31483;BME280;18103;52.246;8.052;2023-02-14T09:26:06;102301.59;;;8.29;73.82
31483;BME280;18103;52.246;8.052;2023-02-14T09:28:32;102303.63;;;8.46;73.55
31483;BME280;18103;52.246;8.052;2023-02-14T09:31:16;102299.06;;;8.51;73.37
31483;BME280;18103;52.246;8.052;2023-02-14T09:33:43;102311.13;;;8.56;72.67
31483;BME280;18103;52.246;8.052;2023-02-14T09:36:09;102305.84;;;8.56;72.43
31483;BME280;18103;52.246;8.052;2023-02-14T09:38:37;102305.72;;;8.60;72.39
31483;BME280;18103;52.246;8.052;2023-02-14T09:41:07;102299.88;;;8.75;72.53
31483;BME280;18103;52.246;8.052;2023-02-14T09:46:03;102294.97;;;8.88;71.87
31483;BME280;18103;52.246;8.052;2023-02-14T09:48:39;102291.59;;;9.06;71.64
31483;BME280;18103;52.246;8.052;2023-02-14T09:51:13;102286.31;;;9.06;71.73
31483;BME280;18103;52.246;8.052;2023-02-14T09:54:02;102288.44;;;8.98;71.72
31483;BME280;18103;52.246;8.052;2023-02-14T09:57:00;102281.03;;;9.08;71.61
31483;BME280;18103;52.246;8.052;2023-02-14T09:59:44;102283.53;;;9.11;72.22
31483;BME280;18103;52.246;8.052;2023-02-14T10:05:12;102280.19;;;9.28;72.48
31483;BME280;18103;52.246;8.052;2023-02-14T10:07:53;102281.84;;;9.31;72.22
31483;BME280;18103;52.246;8.052;2023-02-14T10:13:06;102274.91;;;9.28;72.72
31483;BME280;18103;52.246;8.052;2023-02-14T10:15:42;102283.56;;;9.32;72.21
31483;BME280;18103;52.246;8.052;2023-02-14T10:18:29;102284.28;;;9.35;72.84
31483;BME280;18103;52.246;8.052;2023-02-14T10:21:00;102287.84;;;9.55;71.97
31483;BME280;18103;52.246;8.052;2023-02-14T10:23:50;102282.75;;;9.71;72.93
31483;BME280;18103;52.246;8.052;2023-02-14T10:26:27;102278.72;;;9.83;71.83
31483;BME280;18103;52.246;8.052;2023-02-14T10:28:56;102270.44;;;9.92;72.51
31483;BME280;18103;52.246;8.052;2023-02-14T10:31:36;102273.44;;;10.03;71.64
31483;BME280;18103;52.246;8.052;2023-02-14T10:40:27;102268.84;;;10.47;71.92
31483;BME280;18103;52.246;8.052;2023-02-14T10:43:00;102258.72;;;10.56;71.31
31483;BME280;18103;52.246;8.052;2023-02-14T10:45:38;102248.84;;;10.60;68.64
31483;BME280;18103;52.246;8.052;2023-02-14T10:53:42;102239.16;;;10.78;69.57
31483;BME280;18103;52.246;8.052;2023-02-14T10:56:19;102237.34;;;10.98;69.03
31483;BME280;18103;52.246;8.052;2023-02-14T10:58:45;102235.41;;;11.01;68.78
31483;BME280;18103;52.246;8.052;2023-02-14T11:01:15;102224.38;;;11.28;68.66
31483;BME280;18103;52.246;8.052;2023-02-14T11:06:15;102223.81;;;11.21;66.84
31483;BME280;18103;52.246;8.052;2023-02-14T11:08:41;102215.28;;;11.34;68.66
31483;BME280;18103;52.246;8.052;2023-02-14T11:13:42;102214.56;;;11.47;66.41
31483;BME280;18103;52.246;8.052;2023-02-14T11:16:11;102211.50;;;11.55;66.47
31483;BME280;18103;52.246;8.052;2023-02-14T11:18:39;102216.13;;;11.68;65.88
31483;BME280;18103;52.246;8.052;2023-02-14T11:21:09;102214.22;;;11.87;65.53
31483;BME280;18103;52.246;8.052;2023-02-14T11:23:44;102213.56;;;11.84;66.12
31483;BME280;18103;52.246;8.052;2023-02-14T11:26:29;102210.19;;;12.29;66.76
31483;BME280;18103;52.246;8.052;2023-02-14T11:29:11;102204.53;;;12.20;63.85
31483;BME280;18103;52.246;8.052;2023-02-14T11:31:38;102204.88;;;11.97;65.57
31483;BME280;18103;52.246;8.052;2023-02-14T11:34:36;102202.91;;;12.17;64.70
31483;BME280;18103;52.246;8.052;2023-02-14T11:37:01;102199.69;;;12.28;64.09
31483;BME280;18103;52.246;8.052;2023-02-14T11:39:30;102190.16;;;13.02;65.03
31483;BME280;18103;52.246;8.052;2023-02-14T11:41:59;102188.97;;;12.61;63.93
31483;BME280;18103;52.246;8.052;2023-02-14T11:44:28;102187.53;;;12.56;62.93
31483;BME280;18103;52.246;8.052;2023-02-14T11:46:56;102180.03;;;12.94;64.63
31483;BME280;18103;52.246;8.052;2023-02-14T11:51:57;102172.66;;;13.59;63.80
31483;BME280;18103;52.246;8.052;2023-02-14T11:54:28;102168.75;;;13.50;60.81
31483;BME280;18103;52.246;8.052;2023-02-14T11:56:59;102160.34;;;13.43;60.55
31483;BME280;18103;52.246;8.052;2023-02-14T11:59:37;102165.06;;;13.38;60.61
31483;BME280;18103;52.246;8.052;2023-02-14T12:04:57;102153.97;;;13.75;60.15
31483;BME280;18103;52.246;8.052;2023-02-14T12:07:29;102151.91;;;14.07;57.39
31483;BME280;18103;52.246;8.052;2023-02-14T12:10:25;102140.19;;;13.97;57.55
31483;BME280;18103;52.246;8.052;2023-02-14T12:13:02;102132.91;;;13.86;59.47
31483;BME280;18103;52.246;8.052;2023-02-14T12:23:30;102120.44;;;14.28;61.06
31483;BME280;18103;52.246;8.052;2023-02-14T12:26:01;102118.38;;;14.46;57.75
31483;BME280;18103;52.246;8.052;2023-02-14T12:28:35;102113.00;;;14.20;57.81
31483;BME280;18103;52.246;8.052;2023-02-14T12:31:09;102109.53;;;14.33;58.68
31483;BME280;18103;52.246;8.052;2023-02-14T12:33:35;102112.47;;;14.55;58.22
31483;BME280;18103;52.246;8.052;2023-02-14T12:45:03;102107.88;;;15.73;59.89
31483;BME280;18103;52.246;8.052;2023-02-14T12:55:33;102102.75;;;15.33;55.62
31483;BME280;18103;52.246;8.052;2023-02-14T13:04:00;102086.50;;;15.62;53.75
31483;BME280;18103;52.246;8.052;2023-02-14T13:06:33;102076.34;;;15.43;56.84
31483;BME280;18103;52.246;8.052;2023-02-14T13:11:50;102069.53;;;15.26;54.72
31483;BME280;18103;52.246;8.052;2023-02-14T13:14:44;102070.09;;;15.18;54.45
31483;BME280;18103;52.246;8.052;2023-02-14T13:22:49;102049.88;;;15.66;53.61
31483;BME280;18103;52.246;8.052;2023-02-14T13:25:29;102054.41;;;15.39;54.42
31483;BME280;18103;52.246;8.052;2023-02-14T13:27:59;102045.78;;;15.36;53.12
31483;BME280;18103;52.246;8.052;2023-02-14T13:30:29;102045.59;;;15.26;53.24
31483;BME280;18103;52.246;8.052;2023-02-14T13:33:01;102038.03;;;15.33;55.66
31483;BME280;18103;52.246;8.052;2023-02-14T13:35:28;102032.50;;;15.97;53.98
31483;BME280;18103;52.246;8.052;2023-02-14T13:37:57;102031.00;;;15.82;54.45
31483;BME280;18103;52.246;8.052;2023-02-14T13:40:25;102036.16;;;16.90;54.81
31483;BME280;18103;52.246;8.052;2023-02-14T13:42:54;102029.25;;;16.87;51.49
31483;BME280;18103;52.246;8.052;2023-02-14T13:50:37;102026.06;;;16.59;52.99
31483;BME280;18103;52.246;8.052;2023-02-14T13:53:03;102026.00;;;16.95;53.93
31483;BME280;18103;52.246;8.052;2023-02-14T13:55:35;102030.09;;;16.88;50.68
31483;BME280;18103;52.246;8.052;2023-02-14T13:58:12;102017.09;;;16.14;49.51
31483;BME280;18103;52.246;8.052;2023-02-14T14:00:41;102013.75;;;15.74;50.54
31483;BME280;18103;52.246;8.052;2023-02-14T14:05:58;102017.69;;;15.82;50.19
31483;BME280;18103;52.246;8.052;2023-02-14T14:10:59;102014.22;;;15.93;51.68
31483;BME280;18103;52.246;8.052;2023-02-14T14:21:57;102004.41;;;15.69;50.41
31483;BME280;18103;52.246;8.052;2023-02-14T14:24:29;102007.69;;;15.35;50.39
31483;BME280;18103;52.246;8.052;2023-02-14T14:32:23;101996.72;;;15.40;50.19
31483;BME280;18103;52.246;8.052;2023-02-14T14:37:21;101986.38;;;15.11;50.93
31483;BME280;18103;52.246;8.052;2023-02-14T14:39:58;101998.44;;;14.78;52.17
31483;BME280;18103;52.246;8.052;2023-02-14T14:42:28;101994.56;;;15.08;52.57
31483;BME280;18103;52.246;8.052;2023-02-14T14:45:07;101992.78;;;14.96;53.03
31483;BME280;18103;52.246;8.052;2023-02-14T14:47:40;101991.59;;;14.87;52.45
31483;BME280;18103;52.246;8.052;2023-02-14T14:50:13;101988.94;;;14.87;51.96
31483;BME280;18103;52.246;8.052;2023-02-14T14:52:42;101987.22;;;14.60;51.82
31483;BME280;18103;52.246;8.052;2023-02-14T14:55:20;101990.22;;;14.55;51.31
31483;BME280;18103;52.246;8.052;2023-02-14T14:57:49;101986.34;;;14.34;51.58
31483;BME280;18103;52.246;8.052;2023-02-14T15:03:12;101986.44;;;14.07;51.92
31483;BME280;18103;52.246;8.052;2023-02-14T15:05:41;101970.59;;;14.05;52.08
31483;BME280;18103;52.246;8.052;2023-02-14T15:08:27;101975.94;;;14.18;51.84
31483;BME280;18103;52.246;8.052;2023-02-14T15:11:06;101977.41;;;14.09;52.51
31483;BME280;18103;52.246;8.052;2023-02-14T15:13:45;101977.09;;;14.14;52.17
31483;BME280;18103;52.246;8.052;2023-02-14T15:16:30;101964.41;;;13.92;52.93
31483;BME280;18103;52.246;8.052;2023-02-14T15:18:59;101965.19;;;13.66;52.15
31483;BME280;18103;52.246;8.052;2023-02-14T15:21:31;101965.78;;;13.57;52.97
31483;BME280;18103;52.246;8.052;2023-02-14T15:23:57;101959.97;;;13.65;52.79
31483;BME280;18103;52.246;8.052;2023-02-14T15:26:29;101961.78;;;13.64;53.32
31483;BME280;18103;52.246;8.052;2023-02-14T15:29:01;101962.63;;;13.65;53.42
31483;BME280;18103;52.246;8.052;2023-02-14T15:31:39;101956.81;;;13.45;54.03